Time;durP1;ratioP1;P1;durP2;ratioP2;P2;SDS_P1;SDS_P2;PMS_P1;PMS_P2;Temp;Humidity;BMP_temperature;BMP_pressure;BME280_temperature;BME280_humidity;BME280_pressure;Samples;Min_cycle;Max_cycle;Signal;HPM_P1;HPM_P2
2023/03/12 00:01:21;;;;;;;5.22;3.88;;;6.90;96.70;;;;;;5066359;28;20044;-74
2023/03/12 00:03:49;;;;;;;4.85;4.07;;;7.00;96.50;;;;;;5031677;28;20045;-75
2023/03/12 00:06:18;;;;;;;5.50;4.28;;;7.00;96.20;;;;;;5056677;28;20071;-72
2023/03/12 00:08:47;;;;;;;7.60;4.65;;;6.80;99.90;;;;;;5039360;28;20040;-75
2023/03/12 00:11:17;;;;;;;6.80;5.05;;;6.70;99.90;;;;;;5059020;28;20055;-73
2023/03/12 00:13:51;;;;;;;8.40;5.53;;;6.70;99.90;;;;;;5042808;28;20392;-76
2023/03/12 00:16:20;;;;;;;7.97;5.65;;;6.70;99.90;;;;;;5033445;28;20086;-75
2023/03/12 00:18:49;;;;;;;11.30;6.18;;;6.70;99.90;;;;;;5056834;28;20052;-73
2023/03/12 00:21:18;;;;;;;6.88;5.40;;;6.70;99.90;;;;;;5042537;28;20074;-77
2023/03/12 00:23:50;;;;;;;10.50;5.70;;;6.80;99.90;;;;;;5046198;28;20396;-74
2023/03/12 00:26:27;;;;;;;6.47;5.50;;;6.90;99.90;;;;;;5033392;28;20060;-72
2023/03/12 00:29:04;;;;;;;10.60;5.47;;;6.90;99.90;;;;;;5024683;28;20037;-75
2023/03/12 00:31:50;;;;;;;7.27;5.77;;;7.00;99.90;;;;;;5028528;28;20514;-73
2023/03/12 00:34:18;;;;;;;9.43;5.85;;;7.20;99.90;;;;;;5055023;28;20040;-72
2023/03/12 00:36:45;;;;;;;9.60;6.10;;;7.30;99.90;;;;;;5047480;28;20079;-73
2023/03/12 00:39:12;;;;;;;9.57;6.05;;;7.50;99.90;;;;;;5052972;28;20045;-74
2023/03/12 00:41:42;;;;;;;6.70;5.15;;;7.60;99.90;;;;;;5036379;28;20404;-73
2023/03/12 00:44:09;;;;;;;10.15;4.85;;;7.60;99.90;;;;;;5050595;28;20036;-73
2023/03/12 00:46:36;;;;;;;7.25;5.00;;;7.70;99.90;;;;;;5032951;28;20048;-73
2023/03/12 00:49:04;;;;;;;5.70;4.40;;;7.60;99.90;;;;;;5031902;28;20039;-71
2023/03/12 00:51:31;;;;;;;5.00;4.20;;;7.50;99.90;;;;;;5060941;28;20055;-72
2023/03/12 00:54:04;;;;;;;6.85;4.63;;;7.50;99.90;;;;;;5055461;28;20392;-76
2023/03/12 00:56:34;;;;;;;5.70;4.40;;;7.50;99.90;;;;;;5035045;28;20041;-71
2023/03/12 00:59:01;;;;;;;6.13;4.47;;;7.60;99.90;;;;;;5074048;22;20079;-71
2023/03/12 01:01:29;;;;;;;7.85;5.00;;;7.70;99.90;;;;;;5034794;28;20041;-72
2023/03/12 01:03:57;;;;;;;6.78;4.88;;;7.70;99.90;;;;;;5069098;28;20412;-73
2023/03/12 01:06:25;;;;;;;6.00;4.65;;;7.70;99.90;;;;;;5036681;28;20442;-76
2023/03/12 01:08:57;;;;;;;6.22;4.88;;;7.60;99.90;;;;;;5067634;28;20033;-71
2023/03/12 01:11:24;;;;;;;5.97;4.78;;;7.60;99.90;;;;;;5050331;28;20044;-73
2023/03/12 01:13:51;;;;;;;9.38;5.13;;;7.60;99.90;;;;;;5068473;28;20039;-74
2023/03/12 01:16:19;;;;;;;6.38;4.93;;;7.70;99.90;;;;;;5065851;28;20033;-73
2023/03/12 01:18:48;;;;;;;10.82;4.53;;;7.70;99.90;;;;;;5068156;28;20115;-72
2023/03/12 01:21:15;;;;;;;7.35;4.78;;;7.80;99.90;;;;;;5034604;28;20132;-73
2023/03/12 01:23:43;;;;;;;8.25;4.60;;;7.70;99.90;;;;;;5065917;28;20063;-74
2023/03/12 01:26:12;;;;;;;10.63;4.30;;;7.40;99.90;;;;;;5034900;28;20051;-72
2023/03/12 01:28:40;;;;;;;5.20;4.00;;;7.30;99.90;;;;;;5065806;28;20717;-72
2023/03/12 01:31:13;;;;;;;6.10;4.30;;;7.30;99.90;;;;;;5033655;28;20057;-72
2023/03/12 01:33:41;;;;;;;4.82;4.13;;;7.10;99.90;;;;;;5034230;28;20040;-71
2023/03/12 01:36:34;;;;;;;8.82;4.32;;;7.20;99.90;;;;;;5035016;28;20561;-74
2023/03/12 01:39:02;;;;;;;6.65;4.88;;;7.40;99.50;;;;;;5066695;28;20431;-72
2023/03/12 01:41:32;;;;;;;8.35;4.65;;;7.40;99.90;;;;;;5031466;28;20128;-73
2023/03/12 01:44:02;;;;;;;5.97;4.68;;;7.40;99.80;;;;;;5038305;28;20101;-75
2023/03/12 01:46:33;;;;;;;5.57;4.78;;;7.10;99.90;;;;;;5068258;28;20043;-76
2023/03/12 01:49:26;;;;;;;8.10;4.95;;;7.00;99.90;;;;;;5064380;28;20060;-74
2023/03/12 01:52:06;;;;;;;8.18;5.07;;;7.10;99.90;;;;;;5040900;28;20045;-73
2023/03/12 01:54:40;;;;;;;6.68;5.20;;;7.30;99.90;;;;;;5049402;28;20074;-73
2023/03/12 01:57:16;;;;;;;6.50;5.20;;;7.30;99.90;;;;;;5066868;28;20090;-71
2023/03/12 01:59:49;;;;;;;8.98;5.93;;;7.30;99.90;;;;;;5035049;28;20056;-74
2023/03/12 02:02:22;;;;;;;7.95;4.85;;;7.40;99.90;;;;;;5033124;28;20320;-72
2023/03/12 02:04:55;;;;;;;7.10;4.90;;;7.40;99.90;;;;;;5029809;28;20052;-72
2023/03/12 02:07:24;;;;;;;5.90;5.30;;;7.20;99.90;;;;;;5045227;28;20040;-75
2023/03/12 02:10:00;;;;;;;6.45;5.22;;;7.00;99.90;;;;;;5052480;28;20055;-73
2023/03/12 02:12:31;;;;;;;8.65;5.50;;;7.00;99.90;;;;;;5032862;28;20045;-71
2023/03/12 02:14:59;;;;;;;13.85;5.80;;;7.00;99.90;;;;;;5046218;28;20060;-73
2023/03/12 02:17:26;;;;;;;11.27;5.60;;;7.00;99.90;;;;;;5050683;28;20131;-75
2023/03/12 02:19:59;;;;;;;7.90;5.20;;;6.70;99.90;;;;;;5050591;28;20063;-75
2023/03/12 02:23:12;;;;;;;9.25;5.53;;;6.70;99.90;;;;;;5063893;28;20354;-74
2023/03/12 02:25:48;;;;;;;7.45;5.75;;;6.70;99.90;;;;;;5063252;28;20104;-72
2023/03/12 02:28:22;;;;;;;7.97;5.65;;;6.80;99.90;;;;;;5035386;28;20072;-72
2023/03/12 02:30:52;;;;;;;8.07;5.65;;;6.90;99.90;;;;;;5022993;28;20045;-77
2023/03/12 02:33:20;;;;;;;9.43;5.82;;;7.00;99.90;;;;;;5038451;28;20044;-75
2023/03/12 02:35:53;;;;;;;10.95;5.50;;;7.00;99.90;;;;;;5030422;28;20045;-74
2023/03/12 02:38:47;;;;;;;8.05;5.45;;;7.10;99.90;;;;;;5044689;28;20068;-74
2023/03/12 02:41:46;;;;;;;8.15;5.47;;;7.10;99.90;;;;;;5020684;28;20044;-74
2023/03/12 02:44:24;;;;;;;9.85;5.45;;;7.20;99.90;;;;;;5035679;28;20140;-73
2023/03/12 02:46:57;;;;;;;8.02;5.10;;;7.30;99.90;;;;;;5038921;28;20055;-73
2023/03/12 02:49:27;;;;;;;9.05;5.78;;;7.40;99.90;;;;;;5030165;28;20045;-74
2023/03/12 02:51:59;;;;;;;8.68;5.13;;;7.20;99.90;;;;;;5039032;28;20045;-72
2023/03/12 02:54:28;;;;;;;7.78;4.70;;;7.10;99.90;;;;;;5035791;28;20055;-72
2023/03/12 02:57:01;;;;;;;10.13;4.45;;;7.20;99.90;;;;;;5040900;28;20400;-72
2023/03/12 02:59:32;;;;;;;6.70;4.90;;;7.40;99.90;;;;;;5038805;28;20049;-71
2023/03/12 03:02:00;;;;;;;6.78;5.35;;;7.20;99.90;;;;;;5039026;28;20037;-72
2023/03/12 03:04:29;;;;;;;6.93;5.20;;;7.00;99.90;;;;;;5072112;28;20102;-75
2023/03/12 03:06:57;;;;;;;11.82;5.50;;;6.90;99.90;;;;;;5035586;28;20048;-73
2023/03/12 03:09:29;;;;;;;7.65;5.13;;;6.80;99.90;;;;;;5032659;28;20051;-72
2023/03/12 03:11:57;;;;;;;6.60;4.97;;;6.80;99.90;;;;;;5038132;28;20053;-74
2023/03/12 03:14:24;;;;;;;8.63;5.22;;;6.90;99.90;;;;;;5037167;28;20051;-72
2023/03/12 03:16:54;;;;;;;7.85;5.53;;;7.00;99.90;;;;;;5039175;28;20044;-74
2023/03/12 03:19:23;;;;;;;10.25;5.75;;;7.00;99.90;;;;;;5054289;28;20510;-75
2023/03/12 03:21:51;;;;;;;7.57;5.80;;;7.00;99.90;;;;;;5038199;28;20380;-72
2023/03/12 03:24:18;;;;;;;9.10;5.57;;;7.00;99.90;;;;;;5034914;28;20056;-72
2023/03/12 03:26:45;;;;;;;8.30;5.53;;;7.20;99.90;;;;;;5018468;28;20048;-75
2023/03/12 03:29:16;;;;;;;7.97;5.70;;;7.30;99.90;;;;;;5047380;28;20147;-71
2023/03/12 03:31:43;;;;;;;;;;;7.40;99.90;;;;;;5035036;28;20047;-73
2023/03/12 03:34:11;;;;;;;6.75;5.50;;;7.40;99.90;;;;;;5044292;28;19921;-73
2023/03/12 03:36:38;;;;;;;8.40;5.93;;;7.60;99.90;;;;;;5029154;28;20127;-73
2023/03/12 03:39:17;;;;;;;13.50;6.68;;;7.60;99.90;;;;;;5053425;28;20206;-72
2023/03/12 03:41:46;;;;;;;10.10;6.18;;;7.60;99.90;;;;;;5035001;28;20067;-73
2023/03/12 03:44:13;;;;;;;10.88;6.85;;;7.70;99.90;;;;;;5037732;28;20044;-74
2023/03/12 03:46:43;;;;;;;9.70;5.95;;;7.70;99.90;;;;;;5037911;28;20496;-75
2023/03/12 03:49:10;;;;;;;8.13;5.40;;;7.60;99.90;;;;;;5022031;28;20446;-74
2023/03/12 03:51:44;;;;;;;7.05;5.10;;;7.50;99.90;;;;;;5035132;28;20045;-76
2023/03/12 03:54:11;;;;;;;6.75;5.00;;;7.40;99.90;;;;;;5034387;28;20055;-71
2023/03/12 03:56:39;;;;;;;6.32;4.88;;;7.40;99.90;;;;;;5031078;28;20090;-73
2023/03/12 03:59:07;;;;;;;6.03;4.78;;;7.40;99.90;;;;;;5033822;28;20067;-74
2023/03/12 04:01:35;;;;;;;6.13;4.40;;;7.30;99.90;;;;;;5047106;28;20041;-72
2023/03/12 04:04:04;;;;;;;7.07;4.40;;;7.30;99.90;;;;;;5028472;28;20036;-71
2023/03/12 04:06:32;;;;;;;9.02;5.57;;;7.30;99.90;;;;;;5033825;28;20408;-75
2023/03/12 04:09:02;;;;;;;7.13;5.22;;;7.10;99.90;;;;;;5062895;28;20041;-71
2023/03/12 04:11:29;;;;;;;6.03;4.70;;;7.10;99.90;;;;;;5031586;28;20204;-72
2023/03/12 04:13:57;;;;;;;7.15;5.07;;;6.90;99.90;;;;;;5025560;28;20432;-72
2023/03/12 04:16:24;;;;;;;6.50;4.75;;;6.60;99.90;;;;;;5036945;28;20372;-72
2023/03/12 04:18:52;;;;;;;9.43;5.40;;;6.80;99.90;;;;;;5033765;28;20059;-74
2023/03/12 04:21:20;;;;;;;5.72;4.70;;;6.90;99.90;;;;;;5045122;28;20418;-71
2023/03/12 04:23:47;;;;;;;6.53;5.28;;;6.90;99.90;;;;;;5033785;28;20041;-72
2023/03/12 04:26:16;;;;;;;5.93;5.07;;;7.00;99.90;;;;;;5033828;28;20380;-73
2023/03/12 04:28:43;;;;;;;7.22;5.07;;;7.00;99.90;;;;;;5025417;28;20036;-75
2023/03/12 04:31:16;;;;;;;8.55;5.60;;;7.00;99.90;;;;;;5056261;28;20044;-75
2023/03/12 04:33:43;;;;;;;11.10;5.43;;;7.00;99.90;;;;;;5027845;28;20405;-74
2023/03/12 04:36:15;;;;;;;10.20;5.18;;;6.90;99.90;;;;;;5051115;28;20052;-74
2023/03/12 04:38:50;;;;;;;10.25;5.25;;;6.80;99.90;;;;;;5045857;28;20056;-73
2023/03/12 04:41:23;;;;;;;10.13;5.22;;;6.90;99.90;;;;;;5051072;28;20048;-74
2023/03/12 04:43:56;;;;;;;8.68;5.03;;;6.90;99.90;;;;;;5048255;28;20041;-74
2023/03/12 04:46:23;;;;;;;6.25;5.10;;;6.90;99.90;;;;;;5025067;28;20041;-72
2023/03/12 04:48:51;;;;;;;7.18;4.70;;;6.90;99.90;;;;;;5046661;28;20111;-73
2023/03/12 04:51:23;;;;;;;10.30;5.28;;;6.80;99.90;;;;;;5033834;28;20416;-75
2023/03/12 04:53:51;;;;;;;6.95;4.90;;;6.80;99.90;;;;;;5016773;28;20201;-74
2023/03/12 04:56:18;;;;;;;7.18;4.93;;;6.80;99.90;;;;;;5029758;28;20044;-71
2023/03/12 04:58:46;;;;;;;5.85;4.75;;;6.70;99.90;;;;;;5057529;28;20044;-75
2023/03/12 05:01:25;;;;;;;6.35;4.85;;;6.60;99.90;;;;;;5039013;28;20457;-72
2023/03/12 05:03:56;;;;;;;9.85;5.15;;;6.50;99.90;;;;;;5017368;28;20051;-73
2023/03/12 05:06:26;;;;;;;10.25;4.90;;;6.50;99.90;;;;;;5033028;28;20044;-74
2023/03/12 05:08:56;;;;;;;9.50;5.13;;;6.60;99.90;;;;;;5028356;28;20060;-74
2023/03/12 05:11:24;;;;;;;8.18;5.10;;;6.60;99.90;;;;;;5039725;28;20385;-74
2023/03/12 05:13:56;;;;;;;8.32;5.45;;;6.70;99.30;;;;;;5024255;28;20051;-74
2023/03/12 05:16:26;;;;;;;7.13;5.40;;;6.50;99.90;;;;;;5033942;28;20049;-73
2023/03/12 05:18:54;;;;;;;6.35;4.72;;;6.50;99.90;;;;;;5033310;28;20041;-73
2023/03/12 05:21:22;;;;;;;6.07;4.70;;;6.60;99.90;;;;;;5033017;28;20045;-76
2023/03/12 05:23:51;;;;;;;10.25;4.93;;;6.80;98.70;;;;;;5040718;28;20043;-73
2023/03/12 05:26:22;;;;;;;8.82;5.18;;;6.60;99.70;;;;;;5023370;28;20060;-73
2023/03/12 05:28:53;;;;;;;8.70;5.85;;;6.50;99.20;;;;;;5036580;28;20052;-75
2023/03/12 05:31:22;;;;;;;5.43;4.43;;;6.20;99.90;;;;;;5039195;28;20041;-73
2023/03/12 05:33:50;;;;;;;6.07;5.47;;;6.30;99.90;;;;;;5032987;28;20048;-76
2023/03/12 05:36:22;;;;;;;7.93;5.22;;;6.20;99.90;;;;;;5042409;28;20049;-75
2023/03/12 05:38:50;;;;;;;5.35;4.80;;;6.00;99.90;;;;;;5060330;28;20037;-74
2023/03/12 05:41:21;;;;;;;5.68;4.78;;;6.20;99.90;;;;;;5040831;28;20055;-75
2023/03/12 05:43:48;;;;;;;6.13;5.22;;;6.40;99.90;;;;;;5035840;28;20060;-74
2023/03/12 05:46:16;;;;;;;11.27;5.30;;;6.30;99.90;;;;;;5053896;28;20136;-75
2023/03/12 05:48:49;;;;;;;6.40;5.28;;;6.20;99.90;;;;;;5040955;28;20078;-73
2023/03/12 05:51:19;;;;;;;6.72;5.57;;;6.40;99.90;;;;;;5044278;28;20114;-74
2023/03/12 05:53:46;;;;;;;7.53;5.43;;;6.50;99.90;;;;;;5062592;28;20067;-75
2023/03/12 05:56:25;;;;;;;8.55;5.45;;;6.30;99.60;;;;;;5039860;28;20076;-73
2023/03/12 05:58:53;;;;;;;6.07;5.20;;;6.20;99.90;;;;;;5040117;28;20678;-74
2023/03/12 06:01:23;;;;;;;6.30;5.20;;;6.50;99.40;;;;;;5060126;28;20476;-73
2023/03/12 06:03:54;;;;;;;9.02;5.40;;;6.60;99.40;;;;;;5059570;28;20507;-73
2023/03/12 06:06:24;;;;;;;12.27;5.45;;;6.60;99.00;;;;;;5040355;28;20051;-74
2023/03/12 06:08:57;;;;;;;5.45;4.78;;;6.60;98.70;;;;;;5049129;28;20040;-74
2023/03/12 06:11:25;;;;;;;7.72;4.93;;;6.70;98.50;;;;;;5025257;28;20103;-75
2023/03/12 06:13:52;;;;;;;10.05;5.70;;;6.70;98.40;;;;;;5031960;28;20041;-75
2023/03/12 06:16:25;;;;;;;9.00;5.18;;;6.80;98.20;;;;;;5049654;28;20389;-73
2023/03/12 06:18:58;;;;;;;6.68;5.05;;;6.60;98.90;;;;;;5023690;28;20053;-75
2023/03/12 06:21:28;;;;;;;6.15;4.70;;;6.70;99.10;;;;;;5038890;28;20037;-76
2023/03/12 06:23:56;;;;;;;6.07;5.07;;;6.60;98.20;;;;;;5044752;28;20168;-73
2023/03/12 06:26:26;;;;;;;6.50;5.10;;;6.70;98.50;;;;;;5038639;28;20049;-76
2023/03/12 06:28:56;;;;;;;6.68;5.25;;;6.90;98.10;;;;;;5039836;28;20135;-73
2023/03/12 06:31:26;;;;;;;6.47;5.47;;;7.10;97.80;;;;;;5072816;28;20123;-74
2023/03/12 06:33:55;;;;;;;7.57;4.93;;;7.10;97.20;;;;;;5039967;28;20140;-72
2023/03/12 06:36:23;;;;;;;6.78;5.38;;;7.00;97.30;;;;;;5040689;28;20476;-73
2023/03/12 06:38:54;;;;;;;7.40;5.45;;;6.90;97.30;;;;;;5041679;28;20048;-74
2023/03/12 06:41:23;;;;;;;6.20;5.10;;;7.00;96.80;;;;;;5045282;28;20072;-73
2023/03/12 06:44:00;;;;;;;9.27;5.70;;;7.10;96.60;;;;;;5035195;28;20037;-72
2023/03/12 06:46:29;;;;;;;9.40;5.53;;;7.30;96.20;;;;;;5019783;28;20048;-74
2023/03/12 06:48:56;;;;;;;8.38;4.63;;;7.20;95.90;;;;;;5058204;28;20439;-73
2023/03/12 06:51:23;;;;;;;8.43;5.30;;;7.20;96.00;;;;;;5047723;28;20132;-75
2023/03/12 06:53:51;;;;;;;10.73;5.60;;;7.30;96.30;;;;;;5055081;28;20032;-73
2023/03/12 06:56:18;;;;;;;6.15;5.20;;;7.20;95.70;;;;;;5055207;28;20070;-74
2023/03/12 06:58:46;;;;;;;9.23;5.03;;;7.10;95.60;;;;;;5056106;28;20037;-74
2023/03/12 07:01:13;;;;;;;6.97;5.13;;;7.20;95.60;;;;;;5053963;28;20533;-74
2023/03/12 07:03:41;;;;;;;8.18;5.70;;;7.20;95.30;;;;;;5055379;28;20125;-76
2023/03/12 07:06:14;;;;;;;10.68;5.47;;;7.30;94.80;;;;;;5024296;28;20052;-75
2023/03/12 07:08:43;;;;;;;7.22;4.93;;;7.40;94.60;;;;;;5044774;28;20131;-76
2023/03/12 07:11:13;;;;;;;5.45;4.78;;;7.30;93.80;;;;;;5025580;28;20044;-76
2023/03/12 07:13:50;;;;;;;5.80;4.60;;;7.30;94.00;;;;;;5045063;28;20045;-76
2023/03/12 07:16:20;;;;;;;6.95;4.88;;;7.40;93.50;;;;;;5047933;28;20055;-74
2023/03/12 07:18:52;;;;;;;6.65;4.85;;;7.50;93.10;;;;;;5039750;28;20396;-74
2023/03/12 07:21:22;;;;;;;9.98;5.20;;;7.40;93.10;;;;;;5021476;28;20049;-73
2023/03/12 07:24:12;;;;;;;7.45;5.03;;;7.30;93.40;;;;;;5043021;28;20033;-73
2023/03/12 07:27:03;;;;;;;6.70;5.03;;;7.30;93.30;;;;;;5021840;28;20084;-71
2023/03/12 07:29:30;;;;;;;5.72;4.93;;;7.20;93.00;;;;;;5040890;28;20602;-71
2023/03/12 07:32:04;;;;;;;6.03;5.07;;;7.10;92.80;;;;;;5026934;28;20057;-75
2023/03/12 07:34:31;;;;;;;;;;;6.90;92.90;;;;;;5032049;28;20037;-76
2023/03/12 07:37:02;;;;;;;7.43;4.70;;;7.00;93.00;;;;;;5069918;28;19982;-73
2023/03/12 07:39:38;;;;;;;7.93;4.90;;;7.10;93.30;;;;;;5071218;28;20056;-74
2023/03/12 07:42:06;;;;;;;8.32;4.72;;;7.20;93.20;;;;;;5035769;28;20533;-76
2023/03/12 07:44:49;;;;;;;18.00;11.07;;;7.30;93.80;;;;;;5031733;28;20044;-72
2023/03/12 07:47:29;;;;;;;40.97;21.15;;;7.70;94.80;;;;;;5039397;23;20140;-76
2023/03/12 07:50:00;;;;;;;18.83;12.80;;;7.90;93.40;;;;;;5034867;28;20117;-74
2023/03/12 07:52:28;;;;;;;33.80;21.73;;;7.60;92.40;;;;;;5055415;28;20040;-74
2023/03/12 07:54:57;;;;;;;21.48;14.73;;;7.70;92.80;;;;;;5052050;28;20374;-75
2023/03/12 07:57:31;;;;;;;11.68;7.88;;;7.90;91.90;;;;;;5035051;28;20037;-77
2023/03/12 07:59:58;;;;;;;5.95;5.32;;;8.00;92.70;;;;;;5057432;28;20272;-73
2023/03/12 08:02:26;;;;;;;5.53;4.35;;;8.00;90.80;;;;;;5052836;28;20048;-72
2023/03/12 08:05:02;;;;;;;5.63;4.47;;;7.90;90.60;;;;;;5047531;28;20063;-71
2023/03/12 08:07:34;;;;;;;5.90;4.63;;;8.00;91.20;;;;;;5035514;28;20145;-73
2023/03/12 08:10:07;;;;;;;6.13;4.30;;;7.90;90.50;;;;;;5049203;28;20032;-71
2023/03/12 08:12:36;;;;;;;5.55;4.40;;;7.80;90.10;;;;;;5047766;28;20145;-74
2023/03/12 08:15:21;;;;;;;6.55;5.55;;;8.00;90.20;;;;;;5046910;28;20507;-72
2023/03/12 08:17:52;;;;;;;7.90;4.07;;;8.40;88.60;;;;;;5039585;28;20285;-71
2023/03/12 08:20:20;;;;;;;7.07;4.90;;;8.70;88.30;;;;;;5051974;28;20055;-71
2023/03/12 08:22:47;;;;;;;7.30;4.57;;;8.90;87.20;;;;;;5047015;23;20048;-76
2023/03/12 08:25:17;;;;;;;6.82;4.82;;;9.10;85.90;;;;;;5070286;28;20043;-73
2023/03/12 08:27:45;;;;;;;5.85;4.53;;;9.00;84.30;;;;;;5060188;28;20348;-74
2023/03/12 08:30:13;;;;;;;6.50;4.72;;;9.10;84.90;;;;;;5059340;28;20471;-74
2023/03/12 08:32:42;;;;;;;5.88;4.40;;;9.40;84.50;;;;;;5088669;28;20043;-73
2023/03/12 08:35:12;;;;;;;6.72;4.85;;;9.30;82.60;;;;;;5062103;28;20051;-71
2023/03/12 08:37:42;;;;;;;6.10;4.68;;;9.20;82.30;;;;;;5092356;28;20542;-72
2023/03/12 08:40:13;;;;;;;10.18;4.70;;;9.20;82.10;;;;;;5078505;28;20431;-72
2023/03/12 08:43:06;;;;;;;6.15;4.57;;;9.40;82.50;;;;;;5090203;28;20101;-72
2023/03/12 08:45:36;;;;;;;6.68;4.40;;;9.30;80.20;;;;;;5057290;28;20051;-73
2023/03/12 08:48:05;;;;;;;6.38;4.60;;;9.50;82.70;;;;;;5061075;28;20044;-72
2023/03/12 08:50:35;;;;;;;6.18;4.13;;;9.70;80.50;;;;;;5091892;28;20502;-74
2023/03/12 08:53:08;;;;;;;5.57;4.15;;;9.70;79.40;;;;;;5061103;28;20496;-70
2023/03/12 08:55:35;;;;;;;5.57;4.00;;;9.80;79.50;;;;;;5074944;28;20044;-76
2023/03/12 08:58:09;;;;;;;6.70;4.60;;;10.10;79.90;;;;;;5086318;23;20428;-70
2023/03/12 09:00:41;;;;;;;5.72;4.05;;;10.00;78.40;;;;;;5015468;28;20040;-72
2023/03/12 09:03:12;;;;;;;7.28;4.28;;;9.70;76.70;;;;;;5035544;23;20041;-73
2023/03/12 09:05:41;;;;;;;30.45;17.75;;;9.90;79.60;;;;;;5040033;28;20106;-73
2023/03/12 09:08:10;;;;;;;30.73;20.35;;;10.10;82.40;;;;;;5067970;28;20037;-71
2023/03/12 09:10:40;;;;;;;12.00;7.47;;;10.40;82.50;;;;;;5067071;28;20071;-72
2023/03/12 09:13:07;;;;;;;6.28;4.47;;;10.40;78.30;;;;;;5038744;28;20801;-72
2023/03/12 09:15:34;;;;;;;5.93;4.20;;;10.30;78.10;;;;;;5065564;28;20051;-70
2023/03/12 09:18:02;;;;;;;6.60;4.32;;;10.00;76.10;;;;;;5042515;28;20087;-72
2023/03/12 09:20:30;;;;;;;8.25;4.30;;;9.80;76.90;;;;;;5067053;28;20068;-74
2023/03/12 09:22:57;;;;;;;11.93;7.70;;;9.60;77.70;;;;;;5030722;28;20041;-72
2023/03/12 09:25:24;;;;;;;110.85;58.88;;;9.70;80.90;;;;;;5079446;28;20511;-74
2023/03/12 09:27:52;;;;;;;26.75;17.27;;;10.50;84.50;;;;;;5068283;28;20056;-73
2023/03/12 09:30:20;;;;;;;8.65;6.28;;;10.70;78.10;;;;;;5068705;28;20113;-74
2023/03/12 09:32:48;;;;;;;6.82;4.50;;;10.40;74.00;;;;;;5069647;28;20040;-72
2023/03/12 09:35:15;;;;;;;5.30;3.95;;;10.30;72.80;;;;;;5086938;28;20407;-72
2023/03/12 09:37:48;;;;;;;6.10;4.20;;;10.10;73.20;;;;;;5084334;28;20051;-74
2023/03/12 09:40:20;;;;;;;5.18;3.80;;;10.30;75.10;;;;;;5060645;28;20074;-74
2023/03/12 09:43:01;;;;;;;5.57;4.05;;;10.70;71.30;;;;;;5055005;28;20101;-73
2023/03/12 09:45:37;;;;;;;6.10;4.38;;;11.20;68.20;;;;;;5085789;28;20044;-72
2023/03/12 09:48:12;;;;;;;5.93;4.28;;;11.30;66.60;;;;;;5086253;28;20212;-74
2023/03/12 09:50:50;;;;;;;7.30;4.43;;;11.40;65.20;;;;;;5088070;28;20036;-72
2023/03/12 09:53:26;;;;;;;14.00;8.32;;;11.30;65.00;;;;;;5043716;28;20131;-69
2023/03/12 09:55:57;;;;;;;12.90;7.55;;;10.80;64.20;;;;;;5069673;28;20400;-70
2023/03/12 09:58:33;;;;;;;7.35;4.60;;;10.70;65.10;;;;;;5085384;28;20040;-72
2023/03/12 10:01:09;;;;;;;8.30;4.35;;;11.00;64.50;;;;;;5041269;28;20044;-71
2023/03/12 10:03:54;;;;;;;6.60;4.35;;;11.10;63.20;;;;;;5051418;28;20460;-76
2023/03/12 10:06:51;;;;;;;5.72;4.07;;;11.10;61.00;;;;;;5044705;28;20044;-72
2023/03/12 10:09:46;;;;;;;6.65;4.00;;;11.20;62.30;;;;;;5065311;28;20048;-70
2023/03/12 10:12:20;;;;;;;6.60;3.85;;;11.50;62.90;;;;;;5043180;28;20044;-70
2023/03/12 10:14:56;;;;;;;5.93;4.13;;;11.70;61.10;;;;;;5067766;28;20462;-70
2023/03/12 10:17:37;;;;;;;5.20;3.78;;;12.00;61.00;;;;;;5052228;28;20050;-73
2023/03/12 10:20:17;;;;;;;6.45;3.72;;;11.00;62.60;;;;;;5084304;28;20055;-71
2023/03/12 10:23:09;;;;;;;6.15;4.38;;;10.90;62.00;;;;;;5050543;28;20044;-71
2023/03/12 10:26:13;;;;;;;5.93;3.65;;;11.40;61.10;;;;;;5066596;28;20039;-71
2023/03/12 10:28:47;;;;;;;5.80;3.75;;;11.10;61.10;;;;;;5047401;28;20143;-70
2023/03/12 10:31:47;;;;;;;7.80;3.58;;;10.50;62.80;;;;;;5052689;28;20044;-74
2023/03/12 10:34:29;;;;;;;8.77;4.05;;;10.70;62.00;;;;;;5060145;28;20071;-71
2023/03/12 10:37:24;;;;;;;7.65;3.67;;;11.50;61.30;;;;;;5052658;28;20460;-72
2023/03/12 10:39:54;;;;;;;5.07;3.67;;;11.30;62.40;;;;;;5048239;28;20044;-72
2023/03/12 10:42:27;;;;;;;3.63;3.10;;;11.20;61.60;;;;;;5057478;28;20399;-74
2023/03/12 10:45:20;;;;;;;7.38;3.75;;;10.20;63.30;;;;;;5071785;28;20044;-71
2023/03/12 10:47:56;;;;;;;5.13;3.97;;;10.90;63.30;;;;;;5058032;28;20052;-73
2023/03/12 10:50:39;;;;;;;5.68;3.70;;;11.00;62.70;;;;;;5048518;28;20078;-73
2023/03/12 10:53:27;;;;;;;15.27;8.65;;;11.10;61.80;;;;;;5071532;28;20048;-75
2023/03/12 10:56:08;;;;;;;8.55;5.45;;;12.00;65.90;;;;;;5056186;28;20097;-73
2023/03/12 10:58:48;;;;;;;6.13;4.30;;;12.50;59.60;;;;;;5070683;28;20051;-74
2023/03/12 11:01:25;;;;;;;8.93;4.30;;;12.80;60.50;;;;;;5053675;28;20044;-71
2023/03/12 11:04:21;;;;;;;5.93;3.85;;;12.10;62.70;;;;;;5044398;28;20047;-72
2023/03/12 11:07:14;;;;;;;7.78;4.63;;;12.30;61.90;;;;;;5071751;28;20113;-74
2023/03/12 11:10:01;;;;;;;10.40;4.18;;;13.20;59.20;;;;;;5053954;28;20041;-74
2023/03/12 11:12:36;;;;;;;5.80;3.42;;;12.30;56.90;;;;;;5052758;28;20475;-73
2023/03/12 11:15:24;;;;;;;5.05;3.30;;;12.60;58.70;;;;;;5068620;28;20032;-72
2023/03/12 11:18:21;;;;;;;6.10;3.15;;;13.00;56.30;;;;;;5053866;28;20044;-74
2023/03/12 11:20:51;;;;;;;4.72;3.10;;;14.00;52.20;;;;;;5065291;28;20048;-70
2023/03/12 11:23:30;;;;;;;6.78;3.25;;;16.30;49.90;;;;;;5050280;28;20482;-72
2023/03/12 11:26:05;;;;;;;18.27;8.70;;;14.50;51.60;;;;;;5071280;28;20040;-73
2023/03/12 11:28:42;;;;;;;8.18;4.05;;;13.30;53.40;;;;;;5055960;28;20491;-73
2023/03/12 11:31:28;;;;;;;6.15;3.30;;;13.60;54.00;;;;;;5087439;28;20050;-74
2023/03/12 11:34:03;;;;;;;5.38;3.35;;;13.70;53.60;;;;;;5085599;28;21664;-71
2023/03/12 11:36:55;;;;;;;5.97;3.13;;;13.10;54.30;;;;;;5086018;28;20040;-72
2023/03/12 11:39:44;;;;;;;;;;;12.60;54.70;;;;;;5048420;28;20139;-74
2023/03/12 11:42:51;;;;;;;6.78;3.40;;;14.00;54.10;;;;;;5061839;28;19920;-69
2023/03/12 11:45:56;;;;;;;6.30;3.03;;;14.30;52.90;;;;;;5068476;28;20032;-71
2023/03/12 11:48:56;;;;;;;4.22;2.92;;;12.30;55.90;;;;;;5085574;28;20039;-71
2023/03/12 11:51:49;;;;;;;5.05;3.15;;;12.60;57.00;;;;;;5070614;28;20706;-72
2023/03/12 11:54:34;;;;;;;5.40;3.45;;;12.50;56.80;;;;;;5055068;28;20134;-72
2023/03/12 11:57:30;;;;;;;4.32;3.10;;;12.40;54.90;;;;;;5069865;28;20043;-71
2023/03/12 12:00:19;;;;;;;7.70;5.15;;;12.60;56.70;;;;;;5068015;28;20041;-74
2023/03/12 12:03:06;;;;;;;5.80;3.28;;;13.90;53.40;;;;;;5055878;28;20075;-71
2023/03/12 12:05:51;;;;;;;9.77;5.78;;;14.20;53.60;;;;;;5076102;28;20462;-71
2023/03/12 12:08:49;;;;;;;12.80;5.97;;;14.40;52.10;;;;;;5071575;28;20040;-70
2023/03/12 12:11:50;;;;;;;17.90;9.52;;;12.30;54.00;;;;;;5063968;28;20051;-70
2023/03/12 12:14:44;;;;;;;13.18;6.65;;;12.30;55.00;;;;;;5012639;28;20458;-68
2023/03/12 12:17:53;;;;;;;5.88;3.60;;;11.40;55.90;;;;;;5086683;28;20099;-72
2023/03/12 12:20:42;;;;;;;17.52;10.77;;;11.60;55.50;;;;;;5058102;28;20081;-73
2023/03/12 12:23:30;;;;;;;42.90;25.92;;;12.70;55.20;;;;;;5069934;28;20089;-73
2023/03/12 12:26:21;;;;;;;9.73;6.00;;;13.70;53.60;;;;;;5090286;28;20380;-75
2023/03/12 12:29:22;;;;;;;7.45;2.95;;;14.80;49.80;;;;;;5084046;28;20042;-73
2023/03/12 12:32:01;;;;;;;8.93;2.65;;;17.30;48.90;;;;;;5072885;28;20040;-74
2023/03/12 12:34:42;;;;;;;5.35;2.75;;;17.00;47.00;;;;;;5075339;28;20067;-73
2023/03/12 12:37:33;;;;;;;5.15;2.38;;;18.40;45.00;;;;;;5080779;28;20547;-73
2023/03/12 12:40:24;;;;;;;5.82;2.42;;;21.30;42.10;;;;;;5067502;28;20669;-74
2023/03/12 12:43:13;;;;;;;6.93;2.50;;;21.80;40.50;;;;;;5052281;28;20060;-73
2023/03/12 12:45:45;;;;;;;6.15;2.42;;;19.40;42.30;;;;;;5070699;28;20539;-71
2023/03/12 12:48:22;;;;;;;5.90;2.47;;;20.60;41.70;;;;;;5072381;28;20395;-72
2023/03/12 12:50:52;;;;;;;4.65;2.03;;;22.40;40.30;;;;;;5068207;28;20051;-72
2023/03/12 12:53:48;;;;;;;5.03;2.40;;;23.10;38.80;;;;;;5084613;28;20093;-72
2023/03/12 12:56:23;;;;;;;6.65;2.53;;;20.00;41.10;;;;;;5085578;28;20044;-72
2023/03/12 12:59:25;;;;;;;6.68;2.63;;;17.20;43.90;;;;;;5059881;28;20086;-73
2023/03/12 13:01:57;;;;;;;4.90;2.17;;;17.20;45.30;;;;;;5052715;28;20075;-73
2023/03/12 13:04:37;;;;;;;5.43;2.20;;;19.80;43.00;;;;;;5053058;28;20080;-71
2023/03/12 13:07:10;;;;;;;4.47;2.30;;;20.70;40.80;;;;;;5088556;28;20036;-74
2023/03/12 13:09:43;;;;;;;6.10;2.03;;;17.80;44.10;;;;;;5069179;28;20056;-73
2023/03/12 13:12:14;;;;;;;3.95;2.00;;;16.10;45.20;;;;;;5071650;28;20064;-72
2023/03/12 13:14:43;;;;;;;4.95;2.25;;;15.50;45.40;;;;;;5087126;28;20443;-73
2023/03/12 13:17:29;;;;;;;4.22;2.42;;;16.40;45.10;;;;;;5052583;28;20062;-73
2023/03/12 13:19:59;;;;;;;4.75;2.38;;;16.80;44.50;;;;;;5068871;28;20077;-74
2023/03/12 13:22:46;;;;;;;4.47;2.22;;;18.30;42.50;;;;;;5069124;28;20365;-73
2023/03/12 13:25:25;;;;;;;5.30;1.92;;;18.80;40.80;;;;;;5059504;28;20071;-71
2023/03/12 13:28:15;;;;;;;5.03;2.38;;;17.00;43.50;;;;;;5049292;28;20368;-72
2023/03/12 13:30:47;;;;;;;;;;;20.30;40.60;;;;;;5085691;28;20376;-72